Hauptseite
METAR-TAF:

METAR-TAF

Flughäfen :

Flughafen Florenz

Florenz, Italien

Breite: 43-48N, Länge: 011-12E, Höhe: 40 m

Beobachtung

Neuester Wetterbericht von vor 21 Minuten, um 03:50 UTC
Wind 2 kt aus unterschiedlichen Richtungen
Temperatur 15°C
Luftfeuchtigkeit 88%
Luftdruck 1017 hPa
Sichtweite 10 km oder mehr
Aufgelockert bewölkt in der Höhe von 7000 ft

METAR: LIRQ 160350Z VRB02KT 9999 SCT070 15/13 Q1017

Zeit: 06:11 (04:11 UTC)

Prognose

Neuester Wetterbericht von vor 5 Stunden und 11 Minuten, um 23:00 UTC
Gültige Prognose vom 16 um 00 UTC bis 16 um 24 UTC
Wind 6 kt aus unterschiedlichen Richtungen
Sichtweite 10 km oder mehr
keine Wolken unter 1500 m und keine Kumulonimbus oder Gewitterwolken
Zeitweise
vom 16 um 14 UTC bis 16 um 18 UTC
Sichtweite: 3000 m
Regenschauer

TAF: LIRQ 152300Z 1600/1624 VRB06KT CAVOK TEMPO 1614/1618 3000 SHRA

Wetterbeobachtungen und Prognosen von mehr als 4000 Flughäfen (METAR und TAF Bericht).

Die verfügbaren Stationen werden durch gelbe und rote Markierungen auf der Karte dargestellt.

Führen Sie die Maus auf sie, um den Namen der Station zu sehen.

Darauf klicken, um die Beobachtung von Wetterbeobachtungen und Prognosen zu sehen.

Um die Karte zu ändern : klicken Sie auf den grünen Tasten mit einem schwarzen Kreuz Zum Vergrößern, auf den grünen Button mit einem Gedankenstrich zu verkleinern, oder auf die grünen Pfeile für benachbarte Karten.


METAR-TAF: